sensor_id;sensor_type;location;lat;lon;timestamp;temperature;humidity
10443;DHT22;5269;51.146;16.986;2023-05-02T00:00:20;12.90;99.90
10443;DHT22;5269;51.146;16.986;2023-05-02T00:02:47;12.80;99.90
10443;DHT22;5269;51.146;16.986;2023-05-02T00:05:15;13.00;99.90
10443;DHT22;5269;51.146;16.986;2023-05-02T00:07:42;13.00;99.90
10443;DHT22;5269;51.146;16.986;2023-05-02T00:10:09;13.00;99.90
10443;DHT22;5269;51.146;16.986;2023-05-02T00:12:36;13.10;99.90
10443;DHT22;5269;51.146;16.986;2023-05-02T00:15:03;13.10;99.90
10443;DHT22;5269;51.146;16.986;2023-05-02T00:17:31;13.10;99.90
10443;DHT22;5269;51.146;16.986;2023-05-02T00:19:58;13.00;99.90
10443;DHT22;5269;51.146;16.986;2023-05-02T00:22:26;13.10;76.60
10443;DHT22;5269;51.146;16.986;2023-05-02T00:24:55;13.10;44.10
10443;DHT22;5269;51.146;16.986;2023-05-02T00:27:22;13.00;99.90
10443;DHT22;5269;51.146;16.986;2023-05-02T00:29:50;13.00;99.90
10443;DHT22;5269;51.146;16.986;2023-05-02T00:32:17;13.00;99.90
10443;DHT22;5269;51.146;16.986;2023-05-02T00:34:44;12.90;99.90
10443;DHT22;5269;51.146;16.986;2023-05-02T00:37:11;12.80;99.90
10443;DHT22;5269;51.146;16.986;2023-05-02T00:39:40;13.00;99.90
10443;DHT22;5269;51.146;16.986;2023-05-02T00:42:06;13.00;99.90
10443;DHT22;5269;51.146;16.986;2023-05-02T00:44:33;13.00;57.30
10443;DHT22;5269;51.146;16.986;2023-05-02T00:47:00;13.10;1.00
10443;DHT22;5269;51.146;16.986;2023-05-02T00:49:28;13.00;24.80
10443;DHT22;5269;51.146;16.986;2023-05-02T00:51:55;13.00;99.90
10443;DHT22;5269;51.146;16.986;2023-05-02T00:54:22;13.00;30.90
10443;DHT22;5269;51.146;16.986;2023-05-02T00:56:50;13.00;1.00
10443;DHT22;5269;51.146;16.986;2023-05-02T00:59:17;13.00;1.00
10443;DHT22;5269;51.146;16.986;2023-05-02T01:01:52;13.00;37.60
10443;DHT22;5269;51.146;16.986;2023-05-02T01:04:29;12.90;57.00
10443;DHT22;5269;51.146;16.986;2023-05-02T01:07:08;12.90;51.90
10443;DHT22;5269;51.146;16.986;2023-05-02T01:09:51;12.90;99.90
10443;DHT22;5269;51.146;16.986;2023-05-02T01:12:29;12.80;99.90
10443;DHT22;5269;51.146;16.986;2023-05-02T01:14:58;12.80;99.90
10443;DHT22;5269;51.146;16.986;2023-05-02T01:17:28;12.70;99.90
10443;DHT22;5269;51.146;16.986;2023-05-02T01:19:59;12.60;99.90
10443;DHT22;5269;51.146;16.986;2023-05-02T01:22:28;12.60;1.00
10443;DHT22;5269;51.146;16.986;2023-05-02T01:25:03;12.60;1.00
10443;DHT22;5269;51.146;16.986;2023-05-02T01:27:42;12.50;99.90
10443;DHT22;5269;51.146;16.986;2023-05-02T01:30:16;12.50;99.90
10443;DHT22;5269;51.146;16.986;2023-05-02T01:32:46;12.50;1.00
10443;DHT22;5269;51.146;16.986;2023-05-02T01:35:15;12.40;1.00
10443;DHT22;5269;51.146;16.986;2023-05-02T01:37:44;12.20;1.00
10443;DHT22;5269;51.146;16.986;2023-05-02T01:40:14;12.10;99.90
10443;DHT22;5269;51.146;16.986;2023-05-02T01:42:42;12.10;99.90
10443;DHT22;5269;51.146;16.986;2023-05-02T01:45:11;12.20;1.00
10443;DHT22;5269;51.146;16.986;2023-05-02T01:47:42;12.30;1.00
10443;DHT22;5269;51.146;16.986;2023-05-02T01:50:11;12.20;1.00
10443;DHT22;5269;51.146;16.986;2023-05-02T01:52:41;12.10;1.00
10443;DHT22;5269;51.146;16.986;2023-05-02T01:55:12;12.00;99.90
10443;DHT22;5269;51.146;16.986;2023-05-02T01:57:40;12.00;26.30
10443;DHT22;5269;51.146;16.986;2023-05-02T02:00:10;12.00;99.90
10443;DHT22;5269;51.146;16.986;2023-05-02T02:02:40;12.00;49.80
10443;DHT22;5269;51.146;16.986;2023-05-02T02:05:08;12.00;1.00
10443;DHT22;5269;51.146;16.986;2023-05-02T02:07:36;11.90;99.90
10443;DHT22;5269;51.146;16.986;2023-05-02T02:10:04;11.80;1.00
10443;DHT22;5269;51.146;16.986;2023-05-02T02:12:35;11.80;1.00
10443;DHT22;5269;51.146;16.986;2023-05-02T02:15:09;11.80;1.00
10443;DHT22;5269;51.146;16.986;2023-05-02T02:17:42;11.80;1.00
10443;DHT22;5269;51.146;16.986;2023-05-02T02:20:12;11.70;61.40
10443;DHT22;5269;51.146;16.986;2023-05-02T02:22:42;11.70;99.90
10443;DHT22;5269;51.146;16.986;2023-05-02T02:25:12;11.50;1.00
10443;DHT22;5269;51.146;16.986;2023-05-02T02:27:40;11.60;1.00
10443;DHT22;5269;51.146;16.986;2023-05-02T02:30:08;11.60;99.90
10443;DHT22;5269;51.146;16.986;2023-05-02T02:32:35;11.60;99.90
10443;DHT22;5269;51.146;16.986;2023-05-02T02:35:04;11.60;99.90
10443;DHT22;5269;51.146;16.986;2023-05-02T02:37:34;11.60;1.00
10443;DHT22;5269;51.146;16.986;2023-05-02T02:40:09;11.60;99.90
10443;DHT22;5269;51.146;16.986;2023-05-02T02:42:43;11.50;1.00
10443;DHT22;5269;51.146;16.986;2023-05-02T02:45:22;11.50;1.00
10443;DHT22;5269;51.146;16.986;2023-05-02T02:47:57;11.50;99.90
10443;DHT22;5269;51.146;16.986;2023-05-02T02:50:34;11.40;1.00
10443;DHT22;5269;51.146;16.986;2023-05-02T02:53:04;11.50;1.00
10443;DHT22;5269;51.146;16.986;2023-05-02T02:55:39;11.50;1.00
10443;DHT22;5269;51.146;16.986;2023-05-02T02:58:19;11.70;99.90
10443;DHT22;5269;51.146;16.986;2023-05-02T03:00:48;11.90;1.00
10443;DHT22;5269;51.146;16.986;2023-05-02T03:03:16;12.10;96.20
10443;DHT22;5269;51.146;16.986;2023-05-02T03:05:45;12.30;1.00
10443;DHT22;5269;51.146;16.986;2023-05-02T03:08:12;12.40;1.00
10443;DHT22;5269;51.146;16.986;2023-05-02T03:10:39;12.50;1.00
10443;DHT22;5269;51.146;16.986;2023-05-02T03:13:06;12.50;1.00
10443;DHT22;5269;51.146;16.986;2023-05-02T03:18:31;12.50;99.90
10443;DHT22;5269;51.146;16.986;2023-05-02T03:20:59;12.60;99.90
10443;DHT22;5269;51.146;16.986;2023-05-02T03:23:26;12.60;99.90
10443;DHT22;5269;51.146;16.986;2023-05-02T03:25:53;12.60;99.90
10443;DHT22;5269;51.146;16.986;2023-05-02T03:28:20;12.70;99.90
10443;DHT22;5269;51.146;16.986;2023-05-02T03:30:47;12.80;99.90
10443;DHT22;5269;51.146;16.986;2023-05-02T03:33:14;12.80;5.10
10443;DHT22;5269;51.146;16.986;2023-05-02T03:35:41;12.80;34.70
10443;DHT22;5269;51.146;16.986;2023-05-02T03:38:11;12.90;1.00
10443;DHT22;5269;51.146;16.986;2023-05-02T03:40:38;12.90;1.00
10443;DHT22;5269;51.146;16.986;2023-05-02T03:43:05;13.00;1.00
10443;DHT22;5269;51.146;16.986;2023-05-02T03:45:33;13.00;1.00
10443;DHT22;5269;51.146;16.986;2023-05-02T03:48:00;13.10;1.00
10443;DHT22;5269;51.146;16.986;2023-05-02T03:50:27;13.10;1.00
10443;DHT22;5269;51.146;16.986;2023-05-02T03:52:54;13.10;1.00
10443;DHT22;5269;51.146;16.986;2023-05-02T03:55:23;13.10;1.00
10443;DHT22;5269;51.146;16.986;2023-05-02T03:57:50;13.10;1.00
10443;DHT22;5269;51.146;16.986;2023-05-02T04:00:17;13.10;1.00
10443;DHT22;5269;51.146;16.986;2023-05-02T04:02:44;13.10;1.00
10443;DHT22;5269;51.146;16.986;2023-05-02T04:05:10;13.10;1.00
10443;DHT22;5269;51.146;16.986;2023-05-02T04:07:37;13.10;1.00
10443;DHT22;5269;51.146;16.986;2023-05-02T04:10:05;13.20;1.00
10443;DHT22;5269;51.146;16.986;2023-05-02T04:12:34;13.10;1.00
10443;DHT22;5269;51.146;16.986;2023-05-02T04:15:01;13.20;1.00
10443;DHT22;5269;51.146;16.986;2023-05-02T04:17:28;13.10;32.30
10443;DHT22;5269;51.146;16.986;2023-05-02T04:19:55;13.10;99.90
10443;DHT22;5269;51.146;16.986;2023-05-02T04:22:22;13.00;99.90
10443;DHT22;5269;51.146;16.986;2023-05-02T04:24:49;13.00;99.90
10443;DHT22;5269;51.146;16.986;2023-05-02T04:27:16;12.90;99.90
10443;DHT22;5269;51.146;16.986;2023-05-02T04:29:47;12.90;1.00
10443;DHT22;5269;51.146;16.986;2023-05-02T04:32:14;12.80;1.00
10443;DHT22;5269;51.146;16.986;2023-05-02T04:34:41;12.70;1.00
10443;DHT22;5269;51.146;16.986;2023-05-02T04:37:08;12.70;59.60
10443;DHT22;5269;51.146;16.986;2023-05-02T04:39:35;12.70;99.90
10443;DHT22;5269;51.146;16.986;2023-05-02T04:42:03;12.60;99.90
10443;DHT22;5269;51.146;16.986;2023-05-02T04:44:29;12.60;1.00
10443;DHT22;5269;51.146;16.986;2023-05-02T04:46:58;12.60;1.00
10443;DHT22;5269;51.146;16.986;2023-05-02T04:49:25;12.60;1.00
10443;DHT22;5269;51.146;16.986;2023-05-02T04:51:52;12.60;1.00
10443;DHT22;5269;51.146;16.986;2023-05-02T04:54:18;12.50;1.00
10443;DHT22;5269;51.146;16.986;2023-05-02T04:56:45;12.60;1.00
10443;DHT22;5269;51.146;16.986;2023-05-02T04:59:12;12.60;1.00
10443;DHT22;5269;51.146;16.986;2023-05-02T05:01:39;12.60;1.00
10443;DHT22;5269;51.146;16.986;2023-05-02T05:04:07;12.60;1.00
10443;DHT22;5269;51.146;16.986;2023-05-02T05:06:34;12.70;1.00
10443;DHT22;5269;51.146;16.986;2023-05-02T05:09:01;12.70;99.90
10443;DHT22;5269;51.146;16.986;2023-05-02T05:11:28;12.60;1.00
10443;DHT22;5269;51.146;16.986;2023-05-02T05:13:56;12.70;23.90
10443;DHT22;5269;51.146;16.986;2023-05-02T05:16:23;12.60;99.90
10443;DHT22;5269;51.146;16.986;2023-05-02T05:18:49;12.70;1.00
10443;DHT22;5269;51.146;16.986;2023-05-02T05:21:19;12.60;99.90
10443;DHT22;5269;51.146;16.986;2023-05-02T05:23:46;12.50;1.00
10443;DHT22;5269;51.146;16.986;2023-05-02T05:26:14;12.60;1.00
10443;DHT22;5269;51.146;16.986;2023-05-02T05:28:42;12.50;99.90
10443;DHT22;5269;51.146;16.986;2023-05-02T05:31:10;12.50;91.50
10443;DHT22;5269;51.146;16.986;2023-05-02T05:33:38;12.50;99.90
10443;DHT22;5269;51.146;16.986;2023-05-02T05:36:06;12.50;99.90
10443;DHT22;5269;51.146;16.986;2023-05-02T05:38:35;12.60;99.90
10443;DHT22;5269;51.146;16.986;2023-05-02T05:41:02;12.60;99.90
10443;DHT22;5269;51.146;16.986;2023-05-02T05:43:29;12.70;99.90
10443;DHT22;5269;51.146;16.986;2023-05-02T05:45:56;12.80;99.90
10443;DHT22;5269;51.146;16.986;2023-05-02T05:48:23;12.80;99.90
10443;DHT22;5269;51.146;16.986;2023-05-02T05:50:50;12.90;99.90
10443;DHT22;5269;51.146;16.986;2023-05-02T05:53:18;12.90;99.90
10443;DHT22;5269;51.146;16.986;2023-05-02T05:55:46;13.00;1.00
10443;DHT22;5269;51.146;16.986;2023-05-02T05:58:13;13.10;99.90
10443;DHT22;5269;51.146;16.986;2023-05-02T06:00:40;13.20;99.90
10443;DHT22;5269;51.146;16.986;2023-05-02T06:03:07;13.30;99.90
10443;DHT22;5269;51.146;16.986;2023-05-02T06:05:34;13.20;1.00
10443;DHT22;5269;51.146;16.986;2023-05-02T06:08:01;13.30;1.00
10443;DHT22;5269;51.146;16.986;2023-05-02T06:10:30;13.50;99.90
10443;DHT22;5269;51.146;16.986;2023-05-02T06:12:58;13.30;99.90
10443;DHT22;5269;51.146;16.986;2023-05-02T06:15:25;13.40;1.00
10443;DHT22;5269;51.146;16.986;2023-05-02T06:17:52;13.50;1.00
10443;DHT22;5269;51.146;16.986;2023-05-02T06:20:19;13.50;1.00
10443;DHT22;5269;51.146;16.986;2023-05-02T06:22:46;13.70;1.00
10443;DHT22;5269;51.146;16.986;2023-05-02T06:25:12;13.70;99.90
10443;DHT22;5269;51.146;16.986;2023-05-02T06:27:39;13.90;99.90
10443;DHT22;5269;51.146;16.986;2023-05-02T06:30:08;13.80;99.90
10443;DHT22;5269;51.146;16.986;2023-05-02T06:32:35;13.90;12.70
10443;DHT22;5269;51.146;16.986;2023-05-02T06:35:02;14.00;1.00
10443;DHT22;5269;51.146;16.986;2023-05-02T06:37:32;14.10;99.90
10443;DHT22;5269;51.146;16.986;2023-05-02T06:40:00;14.00;99.90
10443;DHT22;5269;51.146;16.986;2023-05-02T06:42:27;14.00;99.90
10443;DHT22;5269;51.146;16.986;2023-05-02T06:44:54;14.10;99.90
10443;DHT22;5269;51.146;16.986;2023-05-02T06:47:22;14.30;1.00
10443;DHT22;5269;51.146;16.986;2023-05-02T06:49:50;14.20;99.90
10443;DHT22;5269;51.146;16.986;2023-05-02T06:52:17;14.30;99.90
10443;DHT22;5269;51.146;16.986;2023-05-02T06:54:44;14.30;99.90
10443;DHT22;5269;51.146;16.986;2023-05-02T06:57:11;14.60;99.90
10443;DHT22;5269;51.146;16.986;2023-05-02T06:59:38;14.80;94.40
10443;DHT22;5269;51.146;16.986;2023-05-02T07:02:05;14.70;1.00
10443;DHT22;5269;51.146;16.986;2023-05-02T07:04:33;15.00;1.00
10443;DHT22;5269;51.146;16.986;2023-05-02T07:07:00;15.30;1.00
10443;DHT22;5269;51.146;16.986;2023-05-02T07:09:28;15.40;1.00
10443;DHT22;5269;51.146;16.986;2023-05-02T07:11:55;15.50;1.00
10443;DHT22;5269;51.146;16.986;2023-05-02T07:14:22;15.30;1.00
10443;DHT22;5269;51.146;16.986;2023-05-02T07:16:49;15.40;1.00
10443;DHT22;5269;51.146;16.986;2023-05-02T07:19:16;15.60;1.00
10443;DHT22;5269;51.146;16.986;2023-05-02T07:21:44;15.70;1.00
10443;DHT22;5269;51.146;16.986;2023-05-02T07:24:11;15.70;1.00
10443;DHT22;5269;51.146;16.986;2023-05-02T07:26:37;15.80;1.00
10443;DHT22;5269;51.146;16.986;2023-05-02T07:29:05;15.80;99.90
10443;DHT22;5269;51.146;16.986;2023-05-02T07:31:33;15.90;99.90
10443;DHT22;5269;51.146;16.986;2023-05-02T07:34:00;15.90;99.90
10443;DHT22;5269;51.146;16.986;2023-05-02T07:36:27;16.00;99.90
10443;DHT22;5269;51.146;16.986;2023-05-02T07:38:55;16.00;99.90
10443;DHT22;5269;51.146;16.986;2023-05-02T07:41:22;16.10;99.90
10443;DHT22;5269;51.146;16.986;2023-05-02T07:43:49;16.20;99.90
10443;DHT22;5269;51.146;16.986;2023-05-02T07:46:16;16.50;63.00
10443;DHT22;5269;51.146;16.986;2023-05-02T07:48:43;16.40;75.20
10443;DHT22;5269;51.146;16.986;2023-05-02T07:51:10;16.60;99.90
10443;DHT22;5269;51.146;16.986;2023-05-02T07:53:37;16.50;23.80
10443;DHT22;5269;51.146;16.986;2023-05-02T07:56:06;16.60;1.10
10443;DHT22;5269;51.146;16.986;2023-05-02T07:58:34;16.60;1.00
10443;DHT22;5269;51.146;16.986;2023-05-02T08:01:01;16.60;1.00
10443;DHT22;5269;51.146;16.986;2023-05-02T08:03:29;16.70;1.00
10443;DHT22;5269;51.146;16.986;2023-05-02T08:05:56;16.70;1.00
10443;DHT22;5269;51.146;16.986;2023-05-02T08:08:23;16.40;1.00
10443;DHT22;5269;51.146;16.986;2023-05-02T08:10:50;16.50;1.00
10443;DHT22;5269;51.146;16.986;2023-05-02T08:13:18;16.30;1.00
10443;DHT22;5269;51.146;16.986;2023-05-02T08:15:46;16.50;1.00
10443;DHT22;5269;51.146;16.986;2023-05-02T08:18:12;16.70;1.00
10443;DHT22;5269;51.146;16.986;2023-05-02T08:20:39;16.90;1.00
10443;DHT22;5269;51.146;16.986;2023-05-02T08:23:06;17.10;1.00
10443;DHT22;5269;51.146;16.986;2023-05-02T08:25:33;17.20;1.00
10443;DHT22;5269;51.146;16.986;2023-05-02T08:28:00;17.10;1.00
10443;DHT22;5269;51.146;16.986;2023-05-02T08:30:28;17.20;1.00
10443;DHT22;5269;51.146;16.986;2023-05-02T08:32:55;17.40;1.00
10443;DHT22;5269;51.146;16.986;2023-05-02T08:35:22;17.50;1.00
10443;DHT22;5269;51.146;16.986;2023-05-02T08:37:49;17.50;1.00
10443;DHT22;5269;51.146;16.986;2023-05-02T08:40:16;17.30;1.00
10443;DHT22;5269;51.146;16.986;2023-05-02T08:42:43;17.20;1.00
10443;DHT22;5269;51.146;16.986;2023-05-02T08:45:12;17.30;1.00
10443;DHT22;5269;51.146;16.986;2023-05-02T08:47:41;17.20;1.00
10443;DHT22;5269;51.146;16.986;2023-05-02T08:50:09;17.20;1.00
10443;DHT22;5269;51.146;16.986;2023-05-02T08:52:37;17.20;1.00
10443;DHT22;5269;51.146;16.986;2023-05-02T08:55:05;17.20;1.00
10443;DHT22;5269;51.146;16.986;2023-05-02T08:57:33;17.20;1.00
10443;DHT22;5269;51.146;16.986;2023-05-02T08:59:59;17.40;1.00
10443;DHT22;5269;51.146;16.986;2023-05-02T09:02:50;17.50;1.00
10443;DHT22;5269;51.146;16.986;2023-05-02T09:05:23;17.40;1.00
10443;DHT22;5269;51.146;16.986;2023-05-02T09:07:50;17.40;1.00
10443;DHT22;5269;51.146;16.986;2023-05-02T09:10:17;17.50;1.00
10443;DHT22;5269;51.146;16.986;2023-05-02T09:12:44;17.50;1.00
10443;DHT22;5269;51.146;16.986;2023-05-02T09:15:12;17.50;1.00
10443;DHT22;5269;51.146;16.986;2023-05-02T09:17:40;17.50;1.00
10443;DHT22;5269;51.146;16.986;2023-05-02T09:20:11;17.50;1.00
10443;DHT22;5269;51.146;16.986;2023-05-02T09:22:38;17.50;1.00
10443;DHT22;5269;51.146;16.986;2023-05-02T09:25:05;17.50;1.00
10443;DHT22;5269;51.146;16.986;2023-05-02T09:27:48;17.70;1.00
10443;DHT22;5269;51.146;16.986;2023-05-02T09:30:21;17.60;1.00
10443;DHT22;5269;51.146;16.986;2023-05-02T09:32:49;17.80;1.00
10443;DHT22;5269;51.146;16.986;2023-05-02T09:35:18;18.00;1.00
10443;DHT22;5269;51.146;16.986;2023-05-02T09:37:52;18.00;1.00
10443;DHT22;5269;51.146;16.986;2023-05-02T09:40:20;17.70;1.00
10443;DHT22;5269;51.146;16.986;2023-05-02T09:42:47;17.50;1.00
10443;DHT22;5269;51.146;16.986;2023-05-02T09:45:20;17.60;1.00
10443;DHT22;5269;51.146;16.986;2023-05-02T09:47:47;17.60;1.00
10443;DHT22;5269;51.146;16.986;2023-05-02T09:50:34;17.50;1.00
10443;DHT22;5269;51.146;16.986;2023-05-02T09:53:02;17.20;1.00
10443;DHT22;5269;51.146;16.986;2023-05-02T09:55:29;17.30;1.00
10443;DHT22;5269;51.146;16.986;2023-05-02T09:57:57;17.50;1.00
10443;DHT22;5269;51.146;16.986;2023-05-02T10:00:38;17.60;1.00
10443;DHT22;5269;51.146;16.986;2023-05-02T10:03:06;17.70;1.00
10443;DHT22;5269;51.146;16.986;2023-05-02T10:05:35;17.90;1.00
10443;DHT22;5269;51.146;16.986;2023-05-02T10:08:04;17.80;1.00
10443;DHT22;5269;51.146;16.986;2023-05-02T10:10:32;17.70;1.00
10443;DHT22;5269;51.146;16.986;2023-05-02T10:13:02;17.80;1.00
10443;DHT22;5269;51.146;16.986;2023-05-02T10:15:31;17.80;1.00
10443;DHT22;5269;51.146;16.986;2023-05-02T10:17:59;17.80;1.00
10443;DHT22;5269;51.146;16.986;2023-05-02T10:20:30;18.20;1.00
10443;DHT22;5269;51.146;16.986;2023-05-02T10:23:00;18.30;1.00
10443;DHT22;5269;51.146;16.986;2023-05-02T10:25:27;18.30;1.00
10443;DHT22;5269;51.146;16.986;2023-05-02T10:27:55;18.10;1.00
10443;DHT22;5269;51.146;16.986;2023-05-02T10:30:24;18.10;1.00
10443;DHT22;5269;51.146;16.986;2023-05-02T10:32:52;18.30;1.00
10443;DHT22;5269;51.146;16.986;2023-05-02T10:35:20;18.40;1.00
10443;DHT22;5269;51.146;16.986;2023-05-02T10:37:49;18.50;1.00
10443;DHT22;5269;51.146;16.986;2023-05-02T10:40:18;18.60;1.00
10443;DHT22;5269;51.146;16.986;2023-05-02T10:42:47;18.50;1.00
10443;DHT22;5269;51.146;16.986;2023-05-02T10:45:30;18.50;1.00
10443;DHT22;5269;51.146;16.986;2023-05-02T10:48:17;18.50;1.00
10443;DHT22;5269;51.146;16.986;2023-05-02T10:50:45;18.50;1.00
10443;DHT22;5269;51.146;16.986;2023-05-02T10:53:29;18.70;1.00
10443;DHT22;5269;51.146;16.986;2023-05-02T10:56:15;18.80;1.00
10443;DHT22;5269;51.146;16.986;2023-05-02T10:58:43;19.10;1.00
10443;DHT22;5269;51.146;16.986;2023-05-02T11:01:32;19.20;1.00
10443;DHT22;5269;51.146;16.986;2023-05-02T11:04:05;18.90;1.00
10443;DHT22;5269;51.146;16.986;2023-05-02T11:06:34;18.60;1.00
10443;DHT22;5269;51.146;16.986;2023-05-02T11:09:31;18.60;1.00
10443;DHT22;5269;51.146;16.986;2023-05-02T11:12:00;18.60;1.00
10443;DHT22;5269;51.146;16.986;2023-05-02T11:14:47;18.80;1.00
10443;DHT22;5269;51.146;16.986;2023-05-02T11:17:17;19.00;1.00
10443;DHT22;5269;51.146;16.986;2023-05-02T11:20:18;18.90;1.00
10443;DHT22;5269;51.146;16.986;2023-05-02T11:22:45;18.60;99.90
10443;DHT22;5269;51.146;16.986;2023-05-02T11:25:31;18.80;1.00
10443;DHT22;5269;51.146;16.986;2023-05-02T11:28:00;18.90;1.00
10443;DHT22;5269;51.146;16.986;2023-05-02T11:30:38;18.70;99.90
10443;DHT22;5269;51.146;16.986;2023-05-02T11:33:15;18.80;99.90
10443;DHT22;5269;51.146;16.986;2023-05-02T11:35:47;18.80;1.00
10443;DHT22;5269;51.146;16.986;2023-05-02T11:38:19;19.00;1.00
10443;DHT22;5269;51.146;16.986;2023-05-02T11:40:51;19.20;99.90
10443;DHT22;5269;51.146;16.986;2023-05-02T11:43:20;19.10;99.90
10443;DHT22;5269;51.146;16.986;2023-05-02T11:45:47;19.20;99.90
10443;DHT22;5269;51.146;16.986;2023-05-02T11:48:16;18.90;99.90
10443;DHT22;5269;51.146;16.986;2023-05-02T11:50:44;18.70;1.00
10443;DHT22;5269;51.146;16.986;2023-05-02T11:53:13;18.90;1.00
10443;DHT22;5269;51.146;16.986;2023-05-02T11:55:49;19.00;1.00
10443;DHT22;5269;51.146;16.986;2023-05-02T11:58:19;19.20;1.00
10443;DHT22;5269;51.146;16.986;2023-05-02T12:00:46;19.10;1.00
10443;DHT22;5269;51.146;16.986;2023-05-02T12:03:25;19.10;1.00
10443;DHT22;5269;51.146;16.986;2023-05-02T12:05:53;19.20;1.00
10443;DHT22;5269;51.146;16.986;2023-05-02T12:08:24;19.60;1.00
10443;DHT22;5269;51.146;16.986;2023-05-02T12:10:53;20.00;1.00
10443;DHT22;5269;51.146;16.986;2023-05-02T12:13:23;20.10;1.00
10443;DHT22;5269;51.146;16.986;2023-05-02T12:15:52;19.80;1.00
10443;DHT22;5269;51.146;16.986;2023-05-02T12:18:20;19.80;1.00
10443;DHT22;5269;51.146;16.986;2023-05-02T12:20:49;19.50;1.00
10443;DHT22;5269;51.146;16.986;2023-05-02T12:23:17;19.60;1.00
10443;DHT22;5269;51.146;16.986;2023-05-02T12:25:45;19.20;1.00
10443;DHT22;5269;51.146;16.986;2023-05-02T12:28:13;19.20;1.00
10443;DHT22;5269;51.146;16.986;2023-05-02T12:30:43;19.00;1.00
10443;DHT22;5269;51.146;16.986;2023-05-02T12:33:10;18.30;1.00
10443;DHT22;5269;51.146;16.986;2023-05-02T12:35:37;17.10;1.00
10443;DHT22;5269;51.146;16.986;2023-05-02T12:38:12;16.20;99.90
10443;DHT22;5269;51.146;16.986;2023-05-02T12:40:49;15.50;1.00
10443;DHT22;5269;51.146;16.986;2023-05-02T12:43:17;15.10;1.00
10443;DHT22;5269;51.146;16.986;2023-05-02T12:45:45;14.80;99.90
10443;DHT22;5269;51.146;16.986;2023-05-02T12:48:18;14.60;1.00
10443;DHT22;5269;51.146;16.986;2023-05-02T12:50:45;14.20;1.00
10443;DHT22;5269;51.146;16.986;2023-05-02T12:53:12;14.10;1.00
10443;DHT22;5269;51.146;16.986;2023-05-02T12:55:39;14.10;99.90
10443;DHT22;5269;51.146;16.986;2023-05-02T12:58:08;14.20;1.00
10443;DHT22;5269;51.146;16.986;2023-05-02T13:00:36;14.30;99.90
10443;DHT22;5269;51.146;16.986;2023-05-02T13:03:05;14.40;99.90
10443;DHT22;5269;51.146;16.986;2023-05-02T13:05:32;14.50;99.90
10443;DHT22;5269;51.146;16.986;2023-05-02T13:07:59;14.60;1.00
10443;DHT22;5269;51.146;16.986;2023-05-02T13:10:26;14.70;70.20
10443;DHT22;5269;51.146;16.986;2023-05-02T13:12:54;14.70;99.90
10443;DHT22;5269;51.146;16.986;2023-05-02T13:15:21;14.80;4.90
10443;DHT22;5269;51.146;16.986;2023-05-02T13:17:49;15.00;1.00
10443;DHT22;5269;51.146;16.986;2023-05-02T13:20:17;15.20;95.20
10443;DHT22;5269;51.146;16.986;2023-05-02T13:22:44;15.40;99.90
10443;DHT22;5269;51.146;16.986;2023-05-02T13:25:11;15.50;99.90
10443;DHT22;5269;51.146;16.986;2023-05-02T13:27:38;15.70;99.90
10443;DHT22;5269;51.146;16.986;2023-05-02T13:30:07;16.00;99.90
10443;DHT22;5269;51.146;16.986;2023-05-02T13:32:34;16.30;1.00
10443;DHT22;5269;51.146;16.986;2023-05-02T13:35:01;16.50;1.00
10443;DHT22;5269;51.146;16.986;2023-05-02T13:37:30;16.70;1.00
10443;DHT22;5269;51.146;16.986;2023-05-02T13:39:57;17.00;1.00
10443;DHT22;5269;51.146;16.986;2023-05-02T13:42:24;17.30;99.90
10443;DHT22;5269;51.146;16.986;2023-05-02T13:44:51;17.40;99.90
10443;DHT22;5269;51.146;16.986;2023-05-02T13:47:18;17.50;99.90
10443;DHT22;5269;51.146;16.986;2023-05-02T13:49:46;17.60;99.90
10443;DHT22;5269;51.146;16.986;2023-05-02T13:52:12;17.80;99.90
10443;DHT22;5269;51.146;16.986;2023-05-02T13:54:41;18.00;1.00
10443;DHT22;5269;51.146;16.986;2023-05-02T13:57:07;17.90;1.00
10443;DHT22;5269;51.146;16.986;2023-05-02T13:59:34;18.10;1.00
10443;DHT22;5269;51.146;16.986;2023-05-02T14:02:01;18.00;1.00
10443;DHT22;5269;51.146;16.986;2023-05-02T14:04:28;18.00;1.00
10443;DHT22;5269;51.146;16.986;2023-05-02T14:06:55;18.20;1.00
10443;DHT22;5269;51.146;16.986;2023-05-02T14:09:22;18.50;1.00
10443;DHT22;5269;51.146;16.986;2023-05-02T14:11:50;18.70;1.00
10443;DHT22;5269;51.146;16.986;2023-05-02T14:14:17;18.70;1.00
10443;DHT22;5269;51.146;16.986;2023-05-02T14:16:44;18.70;1.00
10443;DHT22;5269;51.146;16.986;2023-05-02T14:19:11;18.80;1.00
10443;DHT22;5269;51.146;16.986;2023-05-02T14:21:37;19.00;1.00
10443;DHT22;5269;51.146;16.986;2023-05-02T14:24:05;19.20;1.00
10443;DHT22;5269;51.146;16.986;2023-05-02T14:26:32;19.30;1.00
10443;DHT22;5269;51.146;16.986;2023-05-02T14:29:01;19.40;1.00
10443;DHT22;5269;51.146;16.986;2023-05-02T14:31:28;19.30;1.00
10443;DHT22;5269;51.146;16.986;2023-05-02T14:33:55;19.20;1.00
10443;DHT22;5269;51.146;16.986;2023-05-02T14:36:22;19.10;1.00
10443;DHT22;5269;51.146;16.986;2023-05-02T14:38:49;19.00;1.00
10443;DHT22;5269;51.146;16.986;2023-05-02T14:41:15;18.70;1.00
10443;DHT22;5269;51.146;16.986;2023-05-02T14:43:42;18.40;1.00
10443;DHT22;5269;51.146;16.986;2023-05-02T14:46:11;18.20;1.00
10443;DHT22;5269;51.146;16.986;2023-05-02T14:48:37;18.50;1.00
10443;DHT22;5269;51.146;16.986;2023-05-02T14:51:05;17.90;1.00
10443;DHT22;5269;51.146;16.986;2023-05-02T14:53:32;17.80;1.00
10443;DHT22;5269;51.146;16.986;2023-05-02T14:55:59;17.90;1.00
10443;DHT22;5269;51.146;16.986;2023-05-02T14:58:25;17.70;1.00
10443;DHT22;5269;51.146;16.986;2023-05-02T15:00:52;17.80;1.00
10443;DHT22;5269;51.146;16.986;2023-05-02T15:03:20;17.90;1.00
10443;DHT22;5269;51.146;16.986;2023-05-02T15:05:47;17.70;1.00
10443;DHT22;5269;51.146;16.986;2023-05-02T15:08:14;17.70;1.00
10443;DHT22;5269;51.146;16.986;2023-05-02T15:10:41;17.70;1.00
10443;DHT22;5269;51.146;16.986;2023-05-02T15:13:08;17.70;1.00
10443;DHT22;5269;51.146;16.986;2023-05-02T15:15:35;17.50;1.00
10443;DHT22;5269;51.146;16.986;2023-05-02T15:18:02;17.50;1.00
10443;DHT22;5269;51.146;16.986;2023-05-02T15:20:30;17.40;1.00
10443;DHT22;5269;51.146;16.986;2023-05-02T15:22:57;17.30;1.00
10443;DHT22;5269;51.146;16.986;2023-05-02T15:25:37;17.30;1.00
10443;DHT22;5269;51.146;16.986;2023-05-02T15:28:04;17.40;1.00
10443;DHT22;5269;51.146;16.986;2023-05-02T15:30:32;17.50;1.00
10443;DHT22;5269;51.146;16.986;2023-05-02T15:33:00;17.40;1.00
10443;DHT22;5269;51.146;16.986;2023-05-02T15:35:27;17.50;1.00
10443;DHT22;5269;51.146;16.986;2023-05-02T15:37:56;17.50;1.00
10443;DHT22;5269;51.146;16.986;2023-05-02T15:40:23;17.60;1.00
10443;DHT22;5269;51.146;16.986;2023-05-02T15:42:52;17.60;1.00
10443;DHT22;5269;51.146;16.986;2023-05-02T15:45:19;17.70;1.00
10443;DHT22;5269;51.146;16.986;2023-05-02T15:47:45;17.60;1.00
10443;DHT22;5269;51.146;16.986;2023-05-02T15:50:12;17.60;1.00
10443;DHT22;5269;51.146;16.986;2023-05-02T15:52:39;17.50;1.00